createdAt,value
2019-03-24T00:00:20.667Z,34.20
2019-03-24T00:05:24.339Z,34.93
2019-03-24T00:10:27.925Z,36.80
2019-03-24T00:15:31.595Z,37.53
2019-03-24T00:20:35.535Z,34.40
2019-03-24T00:25:39.125Z,36.87
2019-03-24T00:30:43.086Z,38.97
2019-03-24T00:35:46.675Z,36.07
2019-03-24T00:40:50.370Z,35.77
2019-03-24T00:45:54.368Z,35.53
2019-03-24T00:50:58.041Z,36.67
2019-03-24T00:56:01.705Z,42.50
2019-03-24T01:01:05.541Z,42.00
2019-03-24T01:06:09.335Z,48.07
2019-03-24T01:11:12.930Z,44.00
2019-03-24T01:16:16.521Z,48.10
2019-03-24T01:21:20.194Z,44.50
2019-03-24T01:26:23.884Z,48.33
2019-03-24T01:31:27.481Z,47.03
2019-03-24T01:36:31.369Z,49.27
2019-03-24T01:41:35.305Z,45.53
2019-03-24T01:46:38.902Z,50.97
2019-03-24T01:51:42.518Z,54.37
2019-03-24T01:56:46.117Z,48.07
2019-03-24T02:01:49.730Z,52.43
2019-03-24T02:06:53.316Z,56.03
2019-03-24T02:11:57.279Z,50.10
2019-03-24T02:17:00.939Z,54.20
2019-03-24T02:22:04.603Z,49.13
2019-03-24T02:27:08.214Z,56.10
2019-03-24T02:32:12.175Z,56.47
2019-03-24T02:37:15.915Z,58.07
2019-03-24T02:42:19.581Z,61.23
2019-03-24T02:47:23.177Z,59.43
2019-03-24T02:52:32.426Z,65.47
2019-03-24T02:57:36.098Z,73.50
2019-03-24T03:02:39.700Z,78.47
2019-03-24T03:07:43.379Z,73.77
2019-03-24T03:12:47.823Z,73.47
2019-03-24T03:17:51.966Z,70.47
2019-03-24T03:22:55.547Z,81.67
2019-03-24T03:27:59.160Z,74.63
2019-03-24T03:33:02.751Z,78.40
2019-03-24T03:38:06.418Z,69.30
2019-03-24T03:43:10.686Z,76.70
2019-03-24T03:48:15.231Z,82.10
2019-03-24T03:53:19.644Z,84.30
2019-03-24T03:58:23.549Z,78.73
2019-03-24T04:03:27.650Z,79.17
2019-03-24T04:08:31.669Z,68.10
2019-03-24T04:13:35.271Z,91.57
2019-03-24T04:18:38.856Z,88.77
2019-03-24T04:23:42.442Z,82.93
2019-03-24T04:28:46.193Z,107.63
2019-03-24T04:33:50.181Z,95.93
2019-03-24T04:38:53.773Z,103.93
2019-03-24T04:43:57.414Z,103.40
2019-03-24T04:49:01.434Z,103.10
2019-03-24T04:54:05.231Z,123.80
2019-03-24T04:59:09.119Z,111.43
2019-03-24T05:04:12.734Z,116.17
2019-03-24T05:09:17.082Z,117.80
2019-03-24T05:14:21.085Z,103.50
2019-03-24T05:19:24.758Z,107.63
2019-03-24T05:24:28.363Z,109.53
2019-03-24T05:29:31.970Z,110.87
2019-03-24T05:34:35.578Z,117.73
2019-03-24T05:39:39.196Z,134.63
2019-03-24T05:44:42.777Z,99.93
2019-03-24T05:49:46.445Z,93.50
2019-03-24T05:54:50.361Z,95.13
2019-03-24T05:59:53.970Z,100.10
2019-03-24T06:04:57.596Z,116.00
2019-03-24T06:10:01.679Z,90.00
2019-03-24T06:15:08.118Z,77.13
2019-03-24T06:20:12.354Z,89.73
2019-03-24T06:25:16.331Z,83.67
2019-03-24T06:30:19.995Z,90.60
2019-03-24T06:35:23.649Z,87.87
2019-03-24T06:40:27.252Z,93.83
2019-03-24T06:45:30.970Z,93.30
2019-03-24T06:50:34.564Z,102.67
2019-03-24T06:55:38.178Z,97.63
2019-03-24T07:00:41.786Z,101.17
2019-03-24T07:05:45.449Z,112.43
2019-03-24T07:10:49.140Z,123.60
2019-03-24T07:15:52.804Z,125.73
2019-03-24T07:20:56.550Z,134.50
2019-03-24T07:26:00.215Z,142.47
2019-03-24T07:31:03.800Z,135.90
2019-03-24T07:36:07.553Z,118.53
2019-03-24T07:41:11.559Z,107.93
2019-03-24T07:46:15.210Z,110.07
2019-03-24T07:51:19.241Z,103.57
2019-03-24T07:56:22.833Z,130.47
2019-03-24T08:01:26.593Z,138.30
2019-03-24T08:06:30.821Z,166.30
2019-03-24T08:11:34.492Z,155.63
2019-03-24T08:16:38.120Z,156.30
2019-03-24T08:21:41.789Z,145.10
2019-03-24T08:26:45.390Z,147.77
2019-03-24T08:31:49.360Z,144.03
2019-03-24T08:36:52.966Z,132.33
2019-03-24T08:41:56.649Z,137.03
2019-03-24T08:47:00.258Z,123.87
2019-03-24T08:52:04.077Z,125.77
2019-03-24T08:57:07.695Z,121.00
2019-03-24T09:02:11.311Z,125.67
2019-03-24T09:07:14.914Z,135.23
2019-03-24T09:12:18.513Z,133.57
2019-03-24T09:17:22.133Z,118.10
2019-03-24T09:22:25.725Z,112.80
2019-03-24T09:27:29.348Z,119.87
2019-03-24T09:32:33.134Z,120.80
2019-03-24T09:37:36.743Z,117.50
2019-03-24T09:42:40.384Z,114.60
2019-03-24T09:47:44.007Z,122.20
2019-03-24T09:52:47.638Z,115.00
2019-03-24T09:57:51.338Z,117.57
2019-03-24T10:02:55.435Z,121.07
2019-03-24T10:07:59.317Z,120.93
2019-03-24T10:13:02.996Z,117.93
2019-03-24T10:18:06.590Z,116.97
2019-03-24T10:23:10.268Z,121.30
2019-03-24T10:28:13.900Z,113.13
2019-03-24T10:33:17.897Z,113.77
2019-03-24T10:38:21.503Z,110.73
2019-03-24T10:43:25.123Z,108.70
2019-03-24T10:48:33.669Z,111.60
2019-03-24T10:53:33.995Z,102.13
2019-03-24T10:58:37.678Z,104.43
2019-03-24T11:03:41.668Z,113.70
2019-03-24T11:08:45.354Z,106.87
2019-03-24T11:13:49.603Z,100.97
2019-03-24T11:18:53.207Z,96.73
2019-03-24T11:23:56.874Z,94.60
2019-03-24T11:29:00.650Z,93.37
2019-03-24T11:34:04.752Z,86.43
2019-03-24T11:39:08.794Z,86.47
2019-03-24T11:44:12.898Z,85.70
2019-03-24T11:49:20.420Z,85.07
2019-03-24T11:54:24.033Z,87.97
2019-03-24T11:59:27.967Z,81.47
2019-03-24T12:04:31.569Z,80.17
2019-03-24T12:09:35.515Z,78.77
2019-03-24T12:14:39.198Z,69.53
2019-03-24T12:19:43.831Z,82.67
2019-03-24T12:24:47.361Z,73.83
2019-03-24T12:29:50.985Z,73.13
2019-03-24T12:34:56.644Z,74.57
2019-03-24T12:40:00.374Z,70.50
2019-03-24T12:45:08.730Z,70.00
2019-03-24T12:50:13.774Z,73.43
2019-03-24T12:55:17.633Z,67.40
2019-03-24T13:00:35.348Z,69.97
2019-03-24T13:05:39.184Z,65.73
2019-03-24T13:10:43.418Z,67.43
2019-03-24T13:15:55.006Z,68.00
2019-03-24T13:20:58.667Z,65.83
2019-03-24T13:26:02.381Z,64.40
2019-03-24T13:31:06.043Z,65.60
2019-03-24T13:36:11.288Z,65.57
2019-03-24T13:41:14.935Z,62.00
2019-03-24T13:46:18.636Z,62.60
2019-03-24T13:51:22.377Z,62.20
2019-03-24T13:56:29.406Z,64.77
2019-03-24T14:01:33.140Z,62.67
2019-03-24T14:06:37.102Z,55.40
2019-03-24T14:11:41.061Z,52.10
2019-03-24T14:16:46.586Z,58.87
2019-03-24T14:21:50.188Z,58.27
2019-03-24T14:26:53.867Z,55.20
2019-03-24T14:31:57.566Z,54.27
2019-03-24T14:37:01.165Z,53.57
2019-03-24T14:42:05.126Z,51.77
2019-03-24T14:47:08.718Z,55.13
2019-03-24T14:52:12.465Z,50.03
2019-03-24T14:57:19.179Z,50.60
2019-03-24T15:02:22.896Z,50.93
2019-03-24T15:07:26.498Z,48.47
2019-03-24T15:12:30.109Z,54.20
2019-03-24T15:17:33.858Z,53.97
2019-03-24T15:22:37.453Z,60.17
2019-03-24T15:27:41.469Z,61.70
2019-03-24T15:32:45.142Z,63.23
2019-03-24T15:37:48.810Z,62.40
2019-03-24T15:42:52.422Z,66.37
2019-03-24T15:47:56.405Z,61.47
2019-03-24T15:53:00.006Z,68.37
2019-03-24T15:58:03.668Z,67.37
2019-03-24T16:03:07.347Z,76.20
2019-03-24T16:08:11.404Z,73.40
2019-03-24T16:13:15.431Z,70.67
2019-03-24T16:18:19.029Z,70.57
2019-03-24T16:23:22.618Z,75.20
2019-03-24T16:28:26.604Z,79.93
2019-03-24T16:33:30.645Z,71.03
2019-03-24T16:38:34.565Z,71.97
2019-03-24T16:43:38.164Z,78.67
2019-03-24T16:48:41.922Z,68.20
2019-03-24T16:53:45.946Z,79.47
2019-03-24T16:58:49.537Z,79.47
2019-03-24T17:03:53.145Z,69.53
2019-03-24T17:08:57.121Z,68.73
2019-03-24T17:14:00.788Z,71.80
2019-03-24T17:19:04.535Z,74.37
2019-03-24T17:24:08.130Z,76.97
2019-03-24T17:29:11.806Z,73.93
2019-03-24T17:34:15.537Z,79.43
2019-03-24T17:39:19.132Z,74.97
2019-03-24T17:44:23.090Z,73.00
2019-03-24T17:49:26.770Z,71.93
2019-03-24T17:54:30.385Z,70.57
2019-03-24T17:59:34.011Z,68.20
2019-03-24T18:04:37.656Z,64.90
2019-03-24T18:09:41.225Z,69.73
2019-03-24T18:14:44.909Z,68.83
2019-03-24T18:19:48.609Z,68.67
2019-03-24T18:24:52.552Z,67.17
2019-03-24T18:29:56.593Z,71.13
2019-03-24T18:35:00.328Z,71.80
2019-03-24T18:40:06.513Z,77.20
2019-03-24T18:45:11.947Z,59.67
2019-03-24T18:50:15.765Z,152.10
2019-03-24T18:55:19.437Z,72.83
2019-03-24T19:00:23.104Z,71.47
2019-03-24T19:05:26.709Z,63.00
2019-03-24T19:10:30.397Z,62.63
2019-03-24T19:15:34.209Z,65.10
2019-03-24T19:20:37.886Z,62.77
2019-03-24T19:25:41.504Z,67.13
2019-03-24T19:30:45.128Z,70.97
2019-03-24T19:35:51.096Z,67.83
2019-03-24T19:40:54.862Z,69.07
2019-03-24T19:45:59.357Z,64.67
2019-03-24T19:51:07.159Z,73.87
2019-03-24T19:56:10.946Z,68.10
2019-03-24T20:01:14.959Z,68.73
2019-03-24T20:06:18.942Z,61.20
2019-03-24T20:11:22.880Z,60.53
2019-03-24T20:16:26.798Z,58.90
2019-03-24T20:21:30.391Z,59.10
2019-03-24T20:26:33.993Z,64.57
2019-03-24T20:31:37.602Z,58.80
2019-03-24T20:36:41.379Z,60.90
2019-03-24T20:41:45.038Z,58.87
2019-03-24T20:46:48.732Z,65.67
2019-03-24T20:51:52.706Z,61.97
2019-03-24T20:56:56.307Z,64.00
2019-03-24T21:02:00.366Z,62.07
2019-03-24T21:07:04.125Z,57.27
2019-03-24T21:12:07.738Z,54.20
2019-03-24T21:17:11.846Z,66.33
2019-03-24T21:22:15.523Z,61.30
2019-03-24T21:27:19.140Z,64.77
2019-03-24T21:32:23.089Z,61.00
2019-03-24T21:37:26.751Z,124.70
2019-03-24T21:42:30.350Z,63.47
2019-03-24T21:47:34.038Z,63.57
2019-03-24T21:52:37.707Z,62.87
2019-03-24T21:57:41.836Z,68.60
2019-03-24T22:02:45.512Z,65.23
2019-03-24T22:07:49.110Z,72.73
2019-03-24T22:12:52.771Z,69.83
2019-03-24T22:17:56.396Z,74.53
2019-03-24T22:23:00.071Z,78.27
2019-03-24T22:28:03.842Z,77.10
2019-03-24T22:33:07.516Z,80.43
2019-03-24T22:38:11.185Z,80.50
2019-03-24T22:43:15.166Z,77.83
2019-03-24T22:48:18.771Z,78.87
2019-03-24T22:53:22.364Z,76.57
2019-03-24T22:58:25.971Z,76.20
2019-03-24T23:03:29.544Z,76.57
2019-03-24T23:08:33.146Z,82.43
2019-03-24T23:13:37.241Z,79.60
2019-03-24T23:18:40.907Z,78.37
2019-03-24T23:23:44.532Z,78.13
2019-03-24T23:28:48.113Z,75.67
2019-03-24T23:33:51.727Z,73.87
2019-03-24T23:38:57.245Z,81.27
2019-03-24T23:44:00.840Z,77.07
2019-03-24T23:49:04.510Z,74.23
2019-03-24T23:54:08.234Z,81.00
2019-03-24T23:59:11.828Z,78.43
